createdAt,value
2022-09-17T00:04:58.738Z,1.30
2022-09-17T00:10:01.333Z,1.50
2022-09-17T00:15:04.028Z,1.40
2022-09-17T00:20:10.359Z,1.70
2022-09-17T00:25:12.992Z,1.70
2022-09-17T00:30:15.599Z,1.60
2022-09-17T00:35:18.196Z,1.67
2022-09-17T00:40:23.781Z,1.70
2022-09-17T00:45:28.196Z,1.30
2022-09-17T00:50:37.085Z,1.30
2022-09-17T00:55:43.017Z,1.70
2022-09-17T01:00:47.478Z,1.77
2022-09-17T01:05:54.036Z,1.85
2022-09-17T01:10:59.511Z,1.60
2022-09-17T01:16:24.705Z,1.70
2022-09-17T01:21:36.213Z,1.48
2022-09-17T01:27:12.819Z,1.60
2022-09-17T01:32:22.900Z,1.52
2022-09-17T01:37:42.601Z,1.42
2022-09-17T01:42:54.405Z,1.55
2022-09-17T01:48:06.149Z,1.55
2022-09-17T01:53:10.694Z,1.70
2022-09-17T01:58:17.665Z,1.50
2022-09-17T02:03:26.565Z,1.77
2022-09-17T02:08:46.203Z,1.65
2022-09-17T02:13:54.835Z,1.38
2022-09-17T02:19:07.698Z,10.02
2022-09-17T02:24:23.838Z,5.82
2022-09-17T02:29:32.990Z,4.85
2022-09-17T02:34:35.947Z,3.50
2022-09-17T02:39:38.750Z,2.55
2022-09-17T02:44:55.492Z,2.00
2022-09-17T02:50:03.755Z,2.40
2022-09-17T02:55:20.256Z,2.15
2022-09-17T03:00:23.579Z,1.73
2022-09-17T03:05:26.563Z,1.60
2022-09-17T03:10:33.055Z,1.20
2022-09-17T03:15:35.734Z,1.50
2022-09-17T03:20:38.273Z,1.13
2022-09-17T03:25:40.548Z,1.10
2022-09-17T03:30:47.028Z,1.20
2022-09-17T03:35:50.902Z,1.35
2022-09-17T03:41:07.552Z,4.10
2022-09-17T03:46:10.633Z,8.35
2022-09-17T03:51:13.192Z,2.97
2022-09-17T03:56:15.710Z,1.92
2022-09-17T04:01:21.110Z,1.63
2022-09-17T04:06:23.993Z,1.75
2022-09-17T04:11:27.085Z,1.80
2022-09-17T04:16:29.515Z,1.98
2022-09-17T04:21:31.968Z,1.92
2022-09-17T04:26:34.270Z,1.95
2022-09-17T04:31:37.167Z,6.78
2022-09-17T04:36:39.592Z,12.15
2022-09-17T04:41:41.935Z,5.50
2022-09-17T04:46:44.900Z,5.60
2022-09-17T04:51:47.620Z,3.65
2022-09-17T04:56:50.637Z,3.50
2022-09-17T05:01:53.116Z,3.53
2022-09-17T05:06:55.714Z,2.93
2022-09-17T05:11:58.286Z,2.60
2022-09-17T05:17:00.806Z,2.80
2022-09-17T05:22:03.502Z,2.65
2022-09-17T05:27:06.784Z,2.70
2022-09-17T05:32:09.307Z,2.65
2022-09-17T05:37:11.842Z,2.30
2022-09-17T05:42:14.614Z,2.40
2022-09-17T05:47:17.040Z,3.13
2022-09-17T05:52:19.861Z,6.43
2022-09-17T05:57:22.375Z,4.77
2022-09-17T06:02:24.875Z,3.72
2022-09-17T06:07:28.252Z,3.30
2022-09-17T06:12:30.879Z,3.88
2022-09-17T06:17:35.320Z,4.00
2022-09-17T06:22:37.809Z,3.80
2022-09-17T06:27:40.248Z,3.33
2022-09-17T06:32:43.197Z,3.40
2022-09-17T06:37:45.845Z,3.10
2022-09-17T06:42:48.331Z,2.83
2022-09-17T06:47:50.885Z,3.00
2022-09-17T06:52:54.639Z,2.72
2022-09-17T06:57:59.240Z,2.10
2022-09-17T07:03:02.703Z,2.78
2022-09-17T07:08:05.399Z,2.22
2022-09-17T07:13:07.944Z,2.63
2022-09-17T07:18:11.879Z,2.33
2022-09-17T07:23:14.307Z,2.20
2022-09-17T07:28:16.585Z,2.28
2022-09-17T07:33:23.545Z,2.00
2022-09-17T07:38:26.995Z,2.08
2022-09-17T07:43:33.696Z,2.13
2022-09-17T07:48:37.464Z,1.90
2022-09-17T07:53:39.908Z,2.00
2022-09-17T07:58:43.063Z,1.92
2022-09-17T08:03:51.107Z,1.90
2022-09-17T08:08:54.483Z,2.08
2022-09-17T08:13:57.399Z,5.78
2022-09-17T08:18:59.745Z,7.00
2022-09-17T08:24:02.421Z,4.30
2022-09-17T08:29:05.666Z,3.60
2022-09-17T08:34:09.785Z,3.17
2022-09-17T08:39:12.786Z,2.10
2022-09-17T08:44:41.887Z,2.13
2022-09-17T08:49:47.833Z,2.30
2022-09-17T08:55:21.957Z,3.10
2022-09-17T09:00:34.820Z,3.28
2022-09-17T09:05:56.534Z,2.50
2022-09-17T09:11:01.703Z,2.80
2022-09-17T09:16:08.007Z,8.05
2022-09-17T09:21:10.603Z,10.63
2022-09-17T09:26:22.260Z,4.10
2022-09-17T09:31:27.510Z,4.15
2022-09-17T09:36:33.244Z,5.95
2022-09-17T09:41:48.788Z,6.00
2022-09-17T09:47:13.452Z,8.85
2022-09-17T09:52:33.191Z,3.80
2022-09-17T09:57:40.853Z,5.47
2022-09-17T10:02:43.848Z,9.88
2022-09-17T10:07:47.063Z,10.10
2022-09-17T10:12:49.658Z,12.98
2022-09-17T10:18:13.755Z,16.65
2022-09-17T10:23:16.354Z,8.00
2022-09-17T10:28:33.239Z,2.80
2022-09-17T10:33:56.008Z,2.90
2022-09-17T10:38:59.056Z,3.38
2022-09-17T10:44:17.703Z,2.40
2022-09-17T10:49:41.510Z,2.30
2022-09-17T10:54:55.778Z,2.00
2022-09-17T11:00:24.438Z,2.40
2022-09-17T11:05:52.300Z,3.03
2022-09-17T11:11:11.812Z,3.40
2022-09-17T11:16:45.067Z,2.85
2022-09-17T11:21:57.493Z,1.95
2022-09-17T11:27:06.031Z,2.60
2022-09-17T11:32:49.190Z,3.35
2022-09-17T11:38:08.926Z,2.45
2022-09-17T11:43:28.603Z,2.65
2022-09-17T11:48:45.231Z,2.63
2022-09-17T11:53:51.849Z,3.03
2022-09-17T11:59:36.207Z,3.08
2022-09-17T12:04:57.846Z,4.38
2022-09-17T12:10:25.476Z,4.18
2022-09-17T12:15:30.297Z,3.80
2022-09-17T12:20:36.397Z,4.45
2022-09-17T12:25:53.251Z,3.83
2022-09-17T12:31:21.114Z,14.38
2022-09-17T12:36:38.042Z,3.50
2022-09-17T12:41:55.482Z,2.67
2022-09-17T12:47:05.378Z,3.60
2022-09-17T12:52:21.794Z,5.30
2022-09-17T12:57:46.483Z,4.53
2022-09-17T13:02:59.447Z,20.95
2022-09-17T13:08:30.536Z,8.05
2022-09-17T13:13:44.127Z,5.07
2022-09-17T13:19:23.356Z,3.55
2022-09-17T13:24:29.927Z,2.70
2022-09-17T13:29:53.920Z,2.38
2022-09-17T13:34:56.309Z,8.63
2022-09-17T13:40:00.879Z,4.63
2022-09-17T13:45:13.292Z,4.03
2022-09-17T13:50:31.495Z,3.22
2022-09-17T13:55:36.014Z,3.60
2022-09-17T14:01:09.462Z,3.20
2022-09-17T14:06:14.909Z,2.55
2022-09-17T14:11:27.731Z,2.70
2022-09-17T14:22:27.059Z,2.85
2022-09-17T14:27:48.324Z,3.42
2022-09-17T14:33:17.722Z,2.63
2022-09-17T14:38:26.089Z,2.03
2022-09-17T14:43:39.324Z,2.58
2022-09-17T14:48:42.422Z,2.50
2022-09-17T14:53:45.785Z,10.83
2022-09-17T14:58:52.164Z,6.13
2022-09-17T15:04:23.961Z,8.82
2022-09-17T15:09:27.921Z,7.78
2022-09-17T15:14:32.325Z,9.32
2022-09-17T15:19:37.929Z,7.15
2022-09-17T15:24:50.659Z,5.65
2022-09-17T15:30:02.465Z,5.45
2022-09-17T15:35:16.115Z,7.15
2022-09-17T15:40:52.090Z,5.35
2022-09-17T15:45:58.372Z,2.92
2022-09-17T15:51:14.483Z,2.00
2022-09-17T15:56:18.816Z,2.30
2022-09-17T16:01:24.386Z,2.30
2022-09-17T16:06:27.041Z,1.70
2022-09-17T16:11:31.941Z,2.08
2022-09-17T16:16:37.085Z,2.50
2022-09-17T16:21:40.797Z,3.25
2022-09-17T16:26:44.681Z,2.67
2022-09-17T16:31:47.296Z,2.28
2022-09-17T16:36:52.411Z,4.25
2022-09-17T16:42:36.328Z,3.30
2022-09-17T16:47:40.521Z,3.47
2022-09-17T16:52:43.261Z,5.65
2022-09-17T17:03:18.030Z,4.50
2022-09-17T17:19:54.486Z,8.18
2022-09-17T17:25:14.814Z,12.75
2022-09-17T17:30:23.671Z,12.02
2022-09-17T17:35:28.704Z,6.40
2022-09-17T17:40:31.166Z,3.88
2022-09-17T17:51:21.495Z,6.57
2022-09-17T17:57:23.701Z,6.97
2022-09-17T18:02:33.920Z,5.65
2022-09-17T18:07:47.364Z,5.07
2022-09-17T18:13:48.133Z,5.22
2022-09-17T18:18:50.933Z,5.53
2022-09-17T18:23:59.393Z,6.80
2022-09-17T18:29:22.006Z,17.98
2022-09-17T18:34:46.156Z,16.10
2022-09-17T18:40:32.417Z,7.88
2022-09-17T18:46:04.634Z,9.00
2022-09-17T18:51:13.784Z,10.05
2022-09-17T18:57:04.479Z,11.60
2022-09-17T19:02:37.067Z,13.23
2022-09-17T19:13:45.357Z,7.70
2022-09-17T19:18:56.267Z,4.57
2022-09-17T19:24:04.165Z,3.10
2022-09-17T19:29:08.523Z,2.80
2022-09-17T19:34:21.383Z,2.97
2022-09-17T19:39:40.256Z,3.45
2022-09-17T19:44:56.364Z,4.95
2022-09-17T19:50:28.369Z,3.85
2022-09-17T19:55:50.753Z,2.88
2022-09-17T20:00:57.678Z,3.22
2022-09-17T20:06:07.564Z,3.45
2022-09-17T20:11:11.407Z,3.50
2022-09-17T20:16:20.767Z,2.58
2022-09-17T20:21:29.424Z,2.00
2022-09-17T20:26:33.502Z,1.70
2022-09-17T20:31:41.028Z,1.60
2022-09-17T20:36:44.883Z,2.00
2022-09-17T20:41:47.651Z,2.70
2022-09-17T20:46:50.376Z,4.30
2022-09-17T20:52:20.408Z,5.38
2022-09-17T20:57:36.161Z,3.88
2022-09-17T21:02:59.503Z,3.92
2022-09-17T21:08:23.705Z,3.97
2022-09-17T21:14:18.472Z,2.35
2022-09-17T21:19:23.226Z,3.13
2022-09-17T21:24:35.434Z,4.80
2022-09-17T21:35:53.729Z,3.10
2022-09-17T21:46:49.775Z,3.15
2022-09-17T21:52:01.757Z,3.38
2022-09-17T21:57:05.830Z,2.25
2022-09-17T22:02:09.600Z,2.20
2022-09-17T22:07:19.213Z,2.17
2022-09-17T22:12:44.605Z,2.55
2022-09-17T22:17:50.944Z,3.55
2022-09-17T22:22:56.409Z,6.45
2022-09-17T22:28:19.579Z,3.28
2022-09-17T22:33:50.641Z,1.88
2022-09-17T22:38:58.242Z,2.00
2022-09-17T22:44:08.008Z,1.73
2022-09-17T22:49:32.178Z,1.45
2022-09-17T22:54:42.700Z,1.30
2022-09-17T23:00:05.581Z,1.10
2022-09-17T23:05:11.081Z,1.00
2022-09-17T23:10:24.430Z,1.17
2022-09-17T23:15:38.616Z,1.15
2022-09-17T23:20:41.638Z,1.27
2022-09-17T23:25:43.937Z,1.23
2022-09-17T23:30:46.688Z,1.20
2022-09-17T23:35:52.055Z,1.20
2022-09-17T23:41:18.695Z,1.50
2022-09-17T23:52:18.292Z,1.40
2022-09-17T23:57:25.351Z,1.40
